Terminal Aerodrome Forecast
Issued by NWS

Current Version | Previous Version | Text Only | Print | Product List | Glossary On
Versions: 1 2 3 4 5 6 7 8 9 10 11 12 13 14 15 16 17 18
000
FTPQ31 PGUM 020530
TAFGUM
TAF

TAF
PGWT 020530Z 0206/0306 06015KT P6SM VCSH SCT018 SCT050
     FM020900 07010KT P6SM VCSH SCT020 SCT040 SCT060
     FM022200 08015KT P6SM VCSH SCT020 SCT040 SCT060=

USA.gov is the U.S. government's official web portal to all federal, state and local government web resources and services.